Time;durP1;ratioP1;P1;durP2;ratioP2;P2;SDS_P1;SDS_P2;PMS_P1;PMS_P2;Temp;Humidity;BMP_temperature;BMP_pressure;BME280_temperature;BME280_humidity;BME280_pressure;Samples;Min_cycle;Max_cycle;Signal;HPM_P1;HPM_P2
2023/09/07 04:03:02;;;;;;;2.80;1.90;;;18.70;75.60;;;;;;4916761;23;20547;-73
2023/09/07 04:05:28;;;;;;;2.80;1.83;;;18.70;75.60;;;;;;4918366;29;20444;-73
2023/09/07 04:07:55;;;;;;;2.60;1.77;;;18.70;75.60;;;;;;4918360;29;20441;-73
2023/09/07 04:10:21;;;;;;;2.10;1.60;;;18.80;75.50;;;;;;4918176;29;20445;-72
2023/09/07 04:12:48;;;;;;;2.20;1.90;;;18.70;75.60;;;;;;4918191;29;20500;-73
2023/09/07 04:15:15;;;;;;;2.70;1.70;;;18.70;75.80;;;;;;4918796;29;20452;-73
2023/09/07 04:17:42;;;;;;;2.73;1.93;;;18.60;76.00;;;;;;4918032;29;20491;-73
2023/09/07 04:20:11;;;;;;;3.00;2.37;;;18.60;76.10;;;;;;4917795;29;20453;-73
2023/09/07 04:22:39;;;;;;;2.27;1.60;;;18.60;76.30;;;;;;4917989;29;20472;-73
2023/09/07 04:25:06;;;;;;;2.30;1.93;;;18.60;76.10;;;;;;4917938;29;20460;-73
2023/09/07 04:27:33;;;;;;;3.70;2.17;;;18.60;76.10;;;;;;4917946;29;20445;-73
2023/09/07 04:29:59;;;;;;;2.10;1.60;;;18.60;76.20;;;;;;4917912;29;20449;-73
2023/09/07 04:32:26;;;;;;;2.33;1.87;;;18.50;76.50;;;;;;4917469;29;20986;-73
2023/09/07 04:34:55;;;;;;;2.97;1.90;;;18.50;76.50;;;;;;4917804;29;20456;-73
2023/09/07 04:37:23;;;;;;;3.10;2.10;;;18.60;76.60;;;;;;4917736;29;20512;-72
2023/09/07 04:39:53;;;;;;;4.30;2.00;;;18.60;76.30;;;;;;4917738;29;20457;-73
2023/09/07 04:42:19;;;;;;;2.80;2.10;;;18.60;76.20;;;;;;4917607;29;20500;-73
2023/09/07 04:44:47;;;;;;;2.83;2.27;;;18.60;76.30;;;;;;4917638;29;20857;-73
2023/09/07 04:47:13;;;;;;;3.10;2.20;;;18.50;76.40;;;;;;4917637;29;20455;-73
2023/09/07 04:49:40;;;;;;;3.93;2.20;;;18.50;76.60;;;;;;4917235;29;20946;-73
2023/09/07 04:52:08;;;;;;;2.90;1.90;;;18.60;76.50;;;;;;4917181;29;20982;-73
2023/09/07 04:54:36;;;;;;;2.20;1.97;;;18.60;76.40;;;;;;4917524;29;20453;-73
2023/09/07 04:57:03;;;;;;;2.90;2.57;;;18.60;76.50;;;;;;4917345;29;20488;-73
2023/09/07 04:59:30;;;;;;;2.70;2.10;;;18.50;76.70;;;;;;4917496;29;20444;-73
2023/09/07 05:02:00;;;;;;;2.93;1.90;;;18.60;76.60;;;;;;4917023;29;20476;-73
2023/09/07 05:04:27;;;;;;;2.60;2.00;;;18.60;76.70;;;;;;4918372;29;20516;-73
2023/09/07 05:06:53;;;;;;;2.70;2.30;;;18.60;76.80;;;;;;4917310;29;20452;-73
2023/09/07 05:09:21;;;;;;;2.63;1.83;;;18.60;76.50;;;;;;4917268;29;20452;-72
2023/09/07 05:11:49;;;;;;;2.80;2.40;;;18.60;76.60;;;;;;4917183;29;20472;-72
2023/09/07 05:14:15;;;;;;;2.67;2.23;;;18.60;76.70;;;;;;4917207;29;20463;-72
2023/09/07 05:16:43;;;;;;;2.67;2.30;;;18.70;76.60;;;;;;4916814;29;20481;-71
2023/09/07 05:19:10;;;;;;;2.50;2.00;;;18.80;76.30;;;;;;4916847;29;20539;-71
2023/09/07 05:21:37;;;;;;;2.73;2.03;;;18.90;76.20;;;;;;4916776;29;21005;-68
2023/09/07 05:24:03;;;;;;;2.50;1.73;;;19.00;76.10;;;;;;4917082;29;20455;-68
2023/09/07 05:26:30;;;;;;;3.00;2.00;;;19.00;76.20;;;;;;4916984;29;20483;-68
2023/09/07 05:28:58;;;;;;;2.37;2.17;;;19.10;76.00;;;;;;4917047;29;20453;-69
2023/09/07 05:31:25;;;;;;;3.47;2.50;;;19.30;75.60;;;;;;4916900;29;20524;-69
2023/09/07 05:33:52;;;;;;;2.03;1.77;;;19.40;75.30;;;;;;4916944;29;20448;-69
2023/09/07 05:36:19;;;;;;;2.53;1.97;;;19.50;75.00;;;;;;4918416;29;20487;-68
2023/09/07 05:38:45;;;;;;;2.93;2.50;;;19.70;74.80;;;;;;4923254;29;20448;-70
2023/09/07 05:41:12;;;;;;;3.03;2.30;;;19.70;74.20;;;;;;4923049;29;20472;-69
2023/09/07 05:43:39;;;;;;;2.70;2.10;;;19.90;74.50;;;;;;4923170;29;20448;-69
2023/09/07 05:46:07;;;;;;;3.10;2.27;;;20.10;74.10;;;;;;4923058;29;20455;-69
2023/09/07 05:48:34;;;;;;;3.37;2.13;;;20.30;73.70;;;;;;4923211;29;20448;-71
2023/09/07 05:51:00;;;;;;;2.50;2.20;;;20.50;73.30;;;;;;4923133;29;20475;-69
2023/09/07 05:53:27;;;;;;;2.67;2.33;;;20.70;73.20;;;;;;4922912;29;20945;-70
2023/09/07 05:55:54;;;;;;;4.60;2.00;;;21.20;72.20;;;;;;4923139;29;20445;-69
2023/09/07 05:58:20;;;;;;;3.60;2.70;;;22.00;70.60;;;;;;4923039;29;20484;-69
2023/09/07 06:00:47;;;;;;;4.33;2.77;;;23.00;68.10;;;;;;4922860;29;20515;-69
2023/09/07 06:03:15;;;;;;;3.93;2.40;;;24.10;64.90;;;;;;4923129;29;20432;-69
2023/09/07 06:05:42;;;;;;;3.37;3.07;;;25.20;61.80;;;;;;4922987;29;20570;-69
2023/09/07 06:08:09;;;;;;;3.40;2.87;;;26.20;59.40;;;;;;4923052;29;20448;-70
2023/09/07 06:10:35;;;;;;;3.03;2.20;;;27.20;57.50;;;;;;4922873;29;20452;-69
2023/09/07 06:13:02;;;;;;;3.50;2.53;;;27.90;55.30;;;;;;4922947;29;20453;-69
2023/09/07 06:15:30;;;;;;;5.87;2.80;;;27.80;54.20;;;;;;4923002;29;20455;-69
2023/09/07 06:17:57;;;;;;;2.80;2.47;;;28.30;54.50;;;;;;4922854;29;20484;-67
2023/09/07 06:20:25;;;;;;;2.60;2.40;;;29.00;53.30;;;;;;4922455;29;20460;-68
2023/09/07 06:22:52;;;;;;;3.17;2.87;;;29.70;51.50;;;;;;4922660;29;20855;-69
2023/09/07 06:25:19;;;;;;;3.00;2.70;;;30.20;50.90;;;;;;4922883;29;20444;-69
2023/09/07 06:27:45;;;;;;;3.17;2.87;;;30.90;49.70;;;;;;4922838;29;20456;-69
2023/09/07 06:30:12;;;;;;;2.70;2.47;;;31.40;48.70;;;;;;4922908;29;20452;-69
2023/09/07 06:32:40;;;;;;;3.00;2.70;;;32.10;47.90;;;;;;4922724;29;20464;-70
2023/09/07 06:35:07;;;;;;;3.10;2.80;;;32.30;46.30;;;;;;4922730;29;20874;-69
2023/09/07 06:37:36;;;;;;;4.30;2.90;;;32.50;46.40;;;;;;4922769;29;20488;-69
2023/09/07 06:40:04;;;;;;;3.43;3.13;;;32.50;46.70;;;;;;4922738;29;20551;-70
2023/09/07 06:42:31;;;;;;;3.03;2.73;;;32.50;46.30;;;;;;4922418;29;20996;-71
2023/09/07 06:44:58;;;;;;;4.40;3.37;;;33.00;46.20;;;;;;4922853;29;20449;-70
2023/09/07 06:47:24;;;;;;;3.00;2.57;;;32.90;46.00;;;;;;4922082;29;20519;-70
2023/09/07 06:49:51;;;;;;;3.50;3.20;;;33.20;45.40;;;;;;4918926;29;20818;-70
2023/09/07 06:52:18;;;;;;;3.80;3.50;;;32.70;45.90;;;;;;4919315;29;20889;-70
2023/09/07 06:54:46;;;;;;;4.60;3.23;;;32.80;46.50;;;;;;4919371;29;20966;-70
2023/09/07 06:57:12;;;;;;;4.20;3.80;;;32.60;46.30;;;;;;4919560;29;20488;-70
2023/09/07 06:59:39;;;;;;;4.20;3.50;;;32.40;46.40;;;;;;4919599;29;20449;-70
2023/09/07 07:02:06;;;;;;;4.03;3.63;;;31.40;48.20;;;;;;4919185;29;20644;-70
2023/09/07 07:04:33;;;;;;;4.23;3.23;;;31.00;49.10;;;;;;4919549;29;20453;-70
2023/09/07 07:07:01;;;;;;;4.90;3.90;;;30.10;50.70;;;;;;4919419;29;20449;-69
2023/09/07 07:09:29;;;;;;;4.37;3.80;;;29.10;52.80;;;;;;4919933;29;20457;-68
2023/09/07 07:11:57;;;;;;;3.83;3.53;;;28.00;54.50;;;;;;4919304;29;20481;-68
2023/09/07 07:14:24;;;;;;;4.40;3.67;;;27.40;57.00;;;;;;4919703;29;20516;-68
2023/09/07 07:16:51;;;;;;;3.73;3.10;;;26.50;58.60;;;;;;4919186;29;20449;-68
2023/09/07 07:19:17;;;;;;;3.67;3.37;;;26.40;59.40;;;;;;4919164;29;20456;-69
2023/09/07 07:21:44;;;;;;;4.80;3.53;;;26.40;59.70;;;;;;4918767;29;20496;-69
2023/09/07 07:24:11;;;;;;;3.77;3.30;;;26.50;59.80;;;;;;4919138;29;20475;-69
2023/09/07 07:26:37;;;;;;;4.90;3.00;;;26.00;60.20;;;;;;4919065;29;20452;-68
2023/09/07 07:29:28;;;;;;;4.40;3.87;;;26.10;60.50;;;;;;4919211;29;20449;-68
2023/09/07 07:31:55;;;;;;;3.40;3.10;;;25.80;61.40;;;;;;4918979;29;20469;-68
2023/09/07 07:34:22;;;;;;;3.60;3.30;;;25.50;62.40;;;;;;4918932;29;20819;-68
2023/09/07 07:36:48;;;;;;;4.27;3.40;;;25.50;62.60;;;;;;4918806;29;20520;-70
2023/09/07 07:39:16;;;;;;;3.90;3.33;;;25.50;63.60;;;;;;4918888;29;20821;-72
2023/09/07 07:41:45;;;;;;;4.40;3.73;;;25.40;63.40;;;;;;4918772;29;20500;-71
2023/09/07 07:44:12;;;;;;;4.23;3.63;;;25.30;64.00;;;;;;4918747;29;20457;-72
2023/09/07 07:46:40;;;;;;;4.40;3.43;;;25.10;64.00;;;;;;4918773;29;20452;-72
2023/09/07 07:49:06;;;;;;;3.43;3.00;;;25.00;64.00;;;;;;4918414;29;20445;-72
2023/09/07 07:51:33;;;;;;;3.77;3.37;;;25.10;64.80;;;;;;4918303;29;20468;-72
2023/09/07 07:54:00;;;;;;;5.00;3.30;;;25.40;64.00;;;;;;4918336;29;20939;-72
2023/09/07 07:56:26;;;;;;;3.87;3.47;;;25.70;62.50;;;;;;4918673;29;20504;-72
2023/09/07 07:58:53;;;;;;;3.90;3.30;;;25.50;63.00;;;;;;4917990;29;20516;-72
2023/09/07 08:01:21;;;;;;;3.40;2.97;;;25.50;63.70;;;;;;4917852;29;21001;-71
2023/09/07 08:03:49;;;;;;;3.60;3.30;;;25.40;63.50;;;;;;4918447;29;20808;-72
2023/09/07 08:06:16;;;;;;;3.67;3.37;;;25.10;64.10;;;;;;4918430;29;20862;-72
2023/09/07 08:08:43;;;;;;;3.17;2.67;;;25.30;63.80;;;;;;4918309;29;20444;-71
2023/09/07 08:11:10;;;;;;;4.00;3.60;;;24.90;64.30;;;;;;4918196;29;20471;-71
2023/09/07 08:13:37;;;;;;;10.43;3.47;;;24.90;64.50;;;;;;4918190;29;20453;-72
2023/09/07 08:16:05;;;;;;;3.40;3.10;;;24.90;64.40;;;;;;4918180;29;20897;-71
2023/09/07 08:18:34;;;;;;;3.40;3.10;;;24.90;64.20;;;;;;4918051;29;20485;-71
2023/09/07 08:21:02;;;;;;;3.67;3.37;;;24.70;64.50;;;;;;4918195;29;20560;-71
2023/09/07 08:23:29;;;;;;;3.47;3.10;;;24.80;65.20;;;;;;4918043;29;20449;-72
2023/09/07 08:25:55;;;;;;;5.70;3.50;;;25.00;65.30;;;;;;4917702;29;20942;-71
2023/09/07 08:28:22;;;;;;;4.43;3.67;;;25.00;64.30;;;;;;4917962;29;20850;-72
2023/09/07 08:30:53;;;;;;;5.10;2.90;;;24.90;65.10;;;;;;4917837;29;20465;-71
2023/09/07 08:33:22;;;;;;;3.00;2.70;;;25.10;64.30;;;;;;4917623;29;20911;-72
2023/09/07 08:35:53;;;;;;;3.57;2.93;;;25.50;64.70;;;;;;4917814;29;20456;-72
2023/09/07 08:38:24;;;;;;;5.37;4.10;;;25.20;63.60;;;;;;4917825;29;20528;-71
2023/09/07 08:40:51;;;;;;;3.43;3.03;;;25.30;64.20;;;;;;4917382;29;21001;-72
2023/09/07 08:43:23;;;;;;;3.90;3.60;;;25.10;64.70;;;;;;4917510;29;20441;-72
2023/09/07 08:45:59;;;;;;;3.17;2.87;;;24.90;63.80;;;;;;4917416;29;20897;-72
2023/09/07 08:48:27;;;;;;;3.67;3.37;;;25.10;64.20;;;;;;4917645;29;20432;-72
2023/09/07 08:50:54;;;;;;;5.13;3.20;;;24.90;65.20;;;;;;4917507;29;20476;-72
2023/09/07 08:53:23;;;;;;;3.30;3.00;;;25.00;64.70;;;;;;4917546;29;20445;-72
2023/09/07 08:55:50;;;;;;;2.90;2.60;;;25.10;65.50;;;;;;4917212;29;20987;-72
2023/09/07 08:58:17;;;;;;;3.47;3.17;;;25.10;63.60;;;;;;4917399;29;20488;-72
2023/09/07 09:00:44;;;;;;;3.53;3.23;;;25.10;65.00;;;;;;4916982;29;20849;-73
2023/09/07 09:03:11;;;;;;;4.30;3.80;;;25.30;64.40;;;;;;4917468;29;20448;-72
2023/09/07 09:05:41;;;;;;;3.50;3.20;;;25.10;64.00;;;;;;4917326;29;20455;-72
2023/09/07 09:08:08;;;;;;;4.40;3.23;;;25.10;63.90;;;;;;4916998;29;20979;-72
2023/09/07 09:10:38;;;;;;;3.33;3.03;;;24.90;64.00;;;;;;4916986;29;20449;-72
2023/09/07 09:13:05;;;;;;;3.60;3.10;;;24.40;66.50;;;;;;4917058;29;20437;-75
2023/09/07 09:15:32;;;;;;;3.57;3.20;;;24.50;67.70;;;;;;4917278;29;20452;-73
2023/09/07 09:17:58;;;;;;;3.37;3.07;;;24.80;66.40;;;;;;4917351;29;20491;-72
2023/09/07 09:20:27;;;;;;;3.50;3.20;;;25.00;66.00;;;;;;4917032;29;20540;-73
2023/09/07 09:22:56;;;;;;;3.10;2.63;;;24.90;66.30;;;;;;4917174;29;20480;-73
2023/09/07 09:25:22;;;;;;;3.67;2.83;;;24.80;66.30;;;;;;4917087;29;20456;-72
2023/09/07 09:27:51;;;;;;;3.97;3.33;;;24.80;66.70;;;;;;4917027;29;20468;-73
2023/09/07 09:30:17;;;;;;;3.83;3.40;;;25.00;66.60;;;;;;4917043;29;20445;-74
2023/09/07 09:32:44;;;;;;;3.77;3.40;;;25.30;66.20;;;;;;4917035;29;20566;-73
2023/09/07 09:35:11;;;;;;;3.90;3.53;;;25.20;65.00;;;;;;4916730;29;20893;-73
2023/09/07 09:37:48;;;;;;;3.57;3.00;;;25.10;65.30;;;;;;4916954;29;20448;-72
2023/09/07 09:40:16;;;;;;;5.07;3.80;;;25.00;67.20;;;;;;4917085;29;20433;-73
2023/09/07 09:42:44;;;;;;;4.23;3.20;;;25.00;66.30;;;;;;4916889;29;20849;-73
2023/09/07 09:45:13;;;;;;;4.50;3.30;;;25.20;65.90;;;;;;4916633;29;20946;-73
2023/09/07 09:47:41;;;;;;;3.00;2.70;;;25.40;66.30;;;;;;4917318;29;20456;-73
2023/09/07 09:50:11;;;;;;;3.30;3.00;;;25.10;65.70;;;;;;4916887;29;20453;-72
2023/09/07 09:52:39;;;;;;;3.37;3.07;;;24.90;65.40;;;;;;4916864;29;20556;-74
2023/09/07 09:55:07;;;;;;;3.90;3.60;;;25.00;67.00;;;;;;4916803;29;20445;-73
2023/09/07 09:57:35;;;;;;;3.10;2.80;;;24.40;67.20;;;;;;4916725;29;20456;-72
2023/09/07 10:00:07;;;;;;;4.23;3.50;;;24.30;68.90;;;;;;4916758;29;20464;-73
2023/09/07 10:02:38;;;;;;;3.60;3.23;;;24.40;68.70;;;;;;4916495;29;20484;-73
2023/09/07 10:05:09;;;;;;;3.33;3.03;;;24.80;67.60;;;;;;4916768;29;20804;-72
2023/09/07 10:07:43;;;;;;;4.67;3.10;;;24.90;68.10;;;;;;4916781;29;20433;-72
2023/09/07 10:10:11;;;;;;;3.40;2.90;;;25.10;66.80;;;;;;4916584;29;20449;-73
2023/09/07 10:12:41;;;;;;;3.03;2.73;;;25.10;68.00;;;;;;4916571;29;20493;-73
2023/09/07 10:15:21;;;;;;;3.70;2.93;;;25.10;66.40;;;;;;4917587;29;20452;-73
2023/09/07 10:17:50;;;;;;;4.77;3.30;;;25.10;67.00;;;;;;4916617;29;20437;-73
2023/09/07 10:20:18;;;;;;;3.43;3.13;;;25.30;67.50;;;;;;4916677;29;20539;-74
2023/09/07 10:22:45;;;;;;;3.43;2.97;;;25.20;66.40;;;;;;4917614;29;20495;-73
2023/09/07 10:25:22;;;;;;;3.10;2.80;;;25.50;66.10;;;;;;4920180;29;20448;-73
2023/09/07 10:27:49;;;;;;;3.20;2.80;;;25.80;66.60;;;;;;4920205;29;20456;-73
2023/09/07 10:30:19;;;;;;;4.77;3.23;;;25.80;65.10;;;;;;4921237;29;20448;-72
2023/09/07 10:32:46;;;;;;;4.40;3.10;;;25.70;65.90;;;;;;4920387;29;20826;-72
2023/09/07 10:35:16;;;;;;;3.97;3.20;;;25.90;66.50;;;;;;4920131;29;20830;-73
2023/09/07 10:37:47;;;;;;;6.47;3.67;;;25.90;65.10;;;;;;4919750;29;20966;-73
2023/09/07 10:40:19;;;;;;;2.77;2.57;;;26.10;64.60;;;;;;4920358;29;20460;-72
2023/09/07 10:42:46;;;;;;;4.17;3.87;;;26.30;65.60;;;;;;4919915;29;20469;-72
2023/09/07 10:45:16;;;;;;;3.30;2.80;;;26.00;64.90;;;;;;4919828;29;20448;-73
2023/09/07 10:47:43;;;;;;;2.97;2.60;;;25.90;65.50;;;;;;4920063;29;20452;-72
2023/09/07 10:50:12;;;;;;;2.83;2.60;;;25.70;66.70;;;;;;4920003;29;20496;-73
2023/09/07 10:52:41;;;;;;;3.27;2.97;;;25.70;66.20;;;;;;4919696;29;20562;-72
2023/09/07 10:55:10;;;;;;;3.30;3.00;;;25.70;66.70;;;;;;4919639;29;20452;-72
2023/09/07 10:57:43;;;;;;;3.37;2.70;;;25.80;66.50;;;;;;4919719;29;20453;-72
2023/09/07 11:00:11;;;;;;;3.00;2.70;;;26.10;66.20;;;;;;4919393;29;21012;-72
2023/09/07 11:02:38;;;;;;;4.70;3.70;;;26.20;65.50;;;;;;4919257;29;20485;-72
2023/09/07 11:05:06;;;;;;;3.10;2.40;;;26.20;65.70;;;;;;4919150;29;20509;-73
2023/09/07 11:07:33;;;;;;;3.97;3.27;;;26.30;66.40;;;;;;4920040;29;20448;-73
2023/09/07 11:10:04;;;;;;;3.20;2.90;;;26.50;65.40;;;;;;4919345;29;20441;-73
2023/09/07 11:12:30;;;;;;;2.93;2.60;;;26.60;65.40;;;;;;4919244;29;20469;-73
2023/09/07 11:14:57;;;;;;;3.10;2.80;;;26.70;65.10;;;;;;4919257;29;20452;-73
2023/09/07 11:17:27;;;;;;;3.10;2.80;;;26.70;65.00;;;;;;4919270;29;20452;-72
2023/09/07 11:19:54;;;;;;;3.10;2.83;;;26.80;64.10;;;;;;4919182;29;20556;-73
2023/09/07 11:22:22;;;;;;;3.27;2.97;;;26.80;63.70;;;;;;4919100;29;20515;-72
2023/09/07 11:24:48;;;;;;;3.23;2.87;;;26.80;64.00;;;;;;4919038;29;20456;-73
2023/09/07 11:27:19;;;;;;;4.73;3.07;;;26.90;64.80;;;;;;4919057;29;20464;-73
2023/09/07 11:29:52;;;;;;;3.80;3.00;;;27.10;65.20;;;;;;4919044;29;20485;-71
2023/09/07 11:32:21;;;;;;;3.40;3.10;;;27.60;63.80;;;;;;4918950;29;20464;-73
2023/09/07 11:34:49;;;;;;;3.40;2.30;;;27.40;62.40;;;;;;4917976;29;20471;-72
2023/09/07 11:37:16;;;;;;;2.70;2.40;;;27.40;63.20;;;;;;4918797;29;20500;-73
2023/09/07 11:39:42;;;;;;;3.00;2.57;;;27.50;62.80;;;;;;4918449;29;21016;-72
2023/09/07 11:42:09;;;;;;;3.37;2.80;;;27.40;62.70;;;;;;4918625;29;20480;-72
2023/09/07 11:44:37;;;;;;;3.13;2.37;;;27.40;62.50;;;;;;4918401;29;20938;-72
2023/09/07 11:47:04;;;;;;;2.80;2.60;;;27.60;63.60;;;;;;4918687;29;20453;-73
2023/09/07 11:49:31;;;;;;;3.20;2.40;;;27.90;62.30;;;;;;4918640;29;20485;-73
2023/09/07 11:51:58;;;;;;;3.30;3.00;;;28.20;62.60;;;;;;4918531;29;20488;-73
2023/09/07 11:54:25;;;;;;;2.70;2.33;;;28.30;61.60;;;;;;4918570;29;20499;-73
2023/09/07 11:56:51;;;;;;;2.47;2.27;;;28.60;60.50;;;;;;4918437;29;20448;-73
2023/09/07 11:59:18;;;;;;;2.70;2.50;;;28.50;59.40;;;;;;4919404;29;20496;-71
2023/09/07 12:01:46;;;;;;;2.70;2.17;;;28.30;61.30;;;;;;4917908;29;20481;-73
2023/09/07 12:04:13;;;;;;;3.17;2.53;;;28.10;59.90;;;;;;4918388;29;20459;-73
2023/09/07 12:06:39;;;;;;;2.93;2.73;;;28.30;61.10;;;;;;4918269;29;20461;-72
2023/09/07 12:09:09;;;;;;;2.30;2.10;;;28.20;59.50;;;;;;4917938;29;20950;-73
2023/09/07 12:11:35;;;;;;;2.60;2.40;;;28.50;61.90;;;;;;4918083;29;20479;-72
2023/09/07 12:14:03;;;;;;;2.60;2.27;;;28.30;60.00;;;;;;4918149;29;20449;-73
2023/09/07 12:16:30;;;;;;;2.80;2.53;;;28.40;59.60;;;;;;4918158;29;20543;-73
2023/09/07 12:18:58;;;;;;;2.50;2.23;;;28.20;60.30;;;;;;4917946;29;20512;-73
2023/09/07 12:21:25;;;;;;;2.83;2.57;;;28.30;59.70;;;;;;4917698;29;21003;-73
2023/09/07 12:23:51;;;;;;;2.53;2.10;;;28.60;60.80;;;;;;4917988;29;20860;-73
2023/09/07 12:26:20;;;;;;;3.20;2.33;;;28.50;58.90;;;;;;4917942;29;20458;-73
2023/09/07 12:28:47;;;;;;;2.47;2.00;;;28.60;60.10;;;;;;4917858;29;20791;-73
2023/09/07 12:31:14;;;;;;;2.40;2.07;;;28.80;59.50;;;;;;4917806;29;20889;-73
2023/09/07 12:33:41;;;;;;;2.13;1.83;;;29.10;59.40;;;;;;4917507;29;20862;-72
2023/09/07 12:36:11;;;;;;;3.37;2.40;;;29.00;57.20;;;;;;4917717;29;20457;-73
2023/09/07 12:38:38;;;;;;;2.50;2.30;;;29.30;58.60;;;;;;4917707;29;20452;-73
2023/09/07 12:41:04;;;;;;;2.13;1.87;;;29.40;58.10;;;;;;4917319;29;20468;-73
2023/09/07 12:43:32;;;;;;;2.13;1.93;;;29.50;56.30;;;;;;4917714;29;20449;-73
2023/09/07 12:45:59;;;;;;;3.03;2.40;;;29.60;56.60;;;;;;4917104;29;20445;-73
2023/09/07 12:48:25;;;;;;;2.40;2.10;;;29.50;56.80;;;;;;4918289;29;20484;-73
2023/09/07 12:50:52;;;;;;;2.00;1.63;;;29.60;56.70;;;;;;4917614;29;20465;-73
2023/09/07 12:53:24;;;;;;;2.70;2.30;;;29.70;55.70;;;;;;4917349;29;20962;-73
2023/09/07 12:55:51;;;;;;;2.00;1.80;;;29.70;55.80;;;;;;4917654;29;20859;-73
2023/09/07 12:58:18;;;;;;;2.53;2.00;;;29.70;55.60;;;;;;4917579;29;20449;-73
2023/09/07 13:00:45;;;;;;;3.37;2.50;;;29.80;57.70;;;;;;4917199;29;20496;-73
2023/09/07 13:03:12;;;;;;;2.90;2.47;;;30.10;57.20;;;;;;4917555;29;20433;-73
2023/09/07 13:05:39;;;;;;;2.30;2.10;;;30.30;57.80;;;;;;4917611;29;20456;-73
2023/09/07 13:08:06;;;;;;;2.30;2.10;;;30.80;55.40;;;;;;4917325;29;20444;-72
2023/09/07 13:10:34;;;;;;;2.60;2.40;;;30.80;54.80;;;;;;4917134;29;20447;-73
2023/09/07 13:13:01;;;;;;;4.17;2.30;;;30.90;56.00;;;;;;4916944;29;20448;-72
2023/09/07 13:15:27;;;;;;;3.90;2.30;;;31.10;55.00;;;;;;4916921;29;20962;-73
2023/09/07 13:17:54;;;;;;;2.37;2.17;;;31.20;55.10;;;;;;4917651;29;20504;-73
2023/09/07 13:20:21;;;;;;;3.13;2.10;;;30.90;55.00;;;;;;4917142;29;20484;-73
2023/09/07 13:22:48;;;;;;;2.80;2.10;;;30.90;54.30;;;;;;4917190;29;20885;-73
2023/09/07 13:25:14;;;;;;;2.20;1.80;;;31.10;55.00;;;;;;4917077;29;20456;-73
2023/09/07 13:27:42;;;;;;;3.73;2.10;;;31.20;54.40;;;;;;4917077;29;20448;-73
2023/09/07 13:30:11;;;;;;;2.70;2.17;;;31.10;55.00;;;;;;4917090;29;20441;-73
2023/09/07 13:32:38;;;;;;;2.47;1.80;;;31.40;54.40;;;;;;4917030;29;20559;-73
2023/09/07 13:35:06;;;;;;;2.10;1.90;;;31.50;54.70;;;;;;4916813;29;20444;-73
2023/09/07 13:37:32;;;;;;;2.50;2.30;;;31.60;53.30;;;;;;4916666;29;20857;-72
2023/09/07 13:39:59;;;;;;;2.20;1.90;;;31.60;54.20;;;;;;4916753;29;20488;-73
2023/09/07 13:42:26;;;;;;;2.57;2.37;;;31.40;53.40;;;;;;4916466;29;20892;-73
2023/09/07 13:44:56;;;;;;;2.47;2.23;;;31.30;54.10;;;;;;4917046;29;20481;-72
2023/09/07 13:47:23;;;;;;;2.60;1.80;;;31.40;54.70;;;;;;4916901;29;20448;-73
2023/09/07 13:49:49;;;;;;;2.13;1.80;;;31.60;54.20;;;;;;4916588;29;20448;-72
2023/09/07 13:52:16;;;;;;;2.00;1.70;;;31.60;54.30;;;;;;4916628;29;20464;-73
2023/09/07 13:54:43;;;;;;;3.40;1.87;;;31.70;53.30;;;;;;4916874;29;20459;-73
2023/09/07 13:57:09;;;;;;;2.60;1.77;;;32.00;53.70;;;;;;4916992;29;20452;-73
2023/09/07 13:59:36;;;;;;;3.40;2.10;;;32.30;53.30;;;;;;4920555;29;20484;-73
2023/09/07 14:02:04;;;;;;;2.60;1.97;;;32.50;52.00;;;;;;4920110;29;20484;-73
2023/09/07 14:04:31;;;;;;;2.87;2.00;;;32.40;52.80;;;;;;4920533;29;20496;-72
2023/09/07 14:06:58;;;;;;;2.30;2.10;;;32.30;52.90;;;;;;4920284;29;20481;-73
2023/09/07 14:09:24;;;;;;;3.03;2.20;;;32.30;52.10;;;;;;4920497;29;20437;-73
2023/09/07 14:11:51;;;;;;;2.73;2.00;;;32.10;52.20;;;;;;4920337;29;20519;-73
2023/09/07 14:14:18;;;;;;;2.53;1.93;;;32.20;52.20;;;;;;4920407;29;20452;-73
2023/09/07 14:16:44;;;;;;;2.07;1.73;;;32.30;52.10;;;;;;4920386;29;20539;-73
2023/09/07 14:19:12;;;;;;;2.00;1.80;;;32.30;51.90;;;;;;4920217;29;20829;-73
2023/09/07 14:21:39;;;;;;;4.03;1.97;;;32.70;51.50;;;;;;4920374;29;20469;-73
2023/09/07 14:24:06;;;;;;;1.90;1.63;;;33.30;50.30;;;;;;4920040;29;20456;-73
2023/09/07 14:26:33;;;;;;;2.83;1.80;;;34.00;49.00;;;;;;4920438;29;20451;-73
2023/09/07 14:28:59;;;;;;;2.03;1.73;;;34.70;49.10;;;;;;4920298;29;20452;-73
2023/09/07 14:31:26;;;;;;;1.80;1.53;;;35.20;47.20;;;;;;4919823;29;20464;-74
2023/09/07 14:33:53;;;;;;;2.00;1.67;;;35.80;46.50;;;;;;4920115;29;20832;-74
2023/09/07 14:36:21;;;;;;;1.97;1.70;;;36.70;45.00;;;;;;4920044;29;20444;-73
2023/09/07 14:38:48;;;;;;;2.30;1.80;;;37.90;42.80;;;;;;4920064;29;20534;-73
2023/09/07 14:41:18;;;;;;;1.90;1.63;;;38.90;41.10;;;;;;4919750;29;20491;-73
2023/09/07 14:43:45;;;;;;;1.80;1.40;;;39.70;40.20;;;;;;4919874;29;20523;-72
2023/09/07 14:46:12;;;;;;;2.03;1.40;;;41.30;38.10;;;;;;4919867;29;20239;-72
2023/09/07 14:48:39;;;;;;;2.15;1.23;;;42.30;37.10;;;;;;4919829;29;20212;-73
2023/09/07 14:51:05;;;;;;;1.60;1.50;;;43.70;36.10;;;;;;4919714;29;20228;-73
2023/09/07 14:53:34;;;;;;;2.17;1.98;;;44.50;35.10;;;;;;4919808;29;20219;-73
2023/09/07 14:56:00;;;;;;;3.45;1.80;;;45.20;34.10;;;;;;4920038;29;20605;-73
2023/09/07 14:58:27;;;;;;;3.28;1.60;;;46.20;33.00;;;;;;4920202;29;20235;-74
2023/09/07 15:00:54;;;;;;;2.30;1.63;;;46.10;32.70;;;;;;4919257;29;20238;-74
2023/09/07 15:03:21;;;;;;;1.90;1.63;;;45.70;32.90;;;;;;4919683;29;20196;-73
2023/09/07 15:05:48;;;;;;;3.42;1.50;;;44.60;33.60;;;;;;4919447;29;20231;-73
2023/09/07 15:08:14;;;;;;;2.05;1.80;;;44.50;33.40;;;;;;4919503;29;20215;-73
2023/09/07 15:10:42;;;;;;;1.90;1.70;;;44.50;34.40;;;;;;4918322;29;20215;-74
2023/09/07 15:13:09;;;;;;;4.63;2.10;;;44.60;33.60;;;;;;4919430;29;20215;-73
2023/09/07 15:15:39;;;;;;;1.85;1.30;;;45.00;34.00;;;;;;4919410;29;20208;-73
2023/09/07 15:18:06;;;;;;;2.05;1.70;;;44.60;33.80;;;;;;4919356;29;20223;-74
2023/09/07 15:20:33;;;;;;;2.80;2.00;;;44.60;34.20;;;;;;4918873;29;20709;-73
2023/09/07 15:22:59;;;;;;;1.60;1.50;;;45.00;33.80;;;;;;4919266;29;20239;-73
2023/09/07 15:25:26;;;;;;;2.13;1.38;;;45.20;33.40;;;;;;4919684;29;20208;-73
2023/09/07 15:27:55;;;;;;;2.35;1.58;;;44.90;33.70;;;;;;4919232;29;20306;-73
2023/09/07 15:30:23;;;;;;;1.75;1.48;;;43.20;34.80;;;;;;4918902;29;20211;-73
2023/09/07 15:32:49;;;;;;;2.28;1.70;;;41.40;36.90;;;;;;4919081;29;20614;-73
2023/09/07 15:35:17;;;;;;;2.10;1.90;;;39.50;39.40;;;;;;4918758;29;20681;-72
2023/09/07 15:37:45;;;;;;;1.83;1.53;;;37.90;41.20;;;;;;4919046;29;20499;-73
2023/09/07 15:40:13;;;;;;;1.90;1.53;;;36.70;43.10;;;;;;4918663;29;20524;-73
2023/09/07 15:42:40;;;;;;;2.23;1.90;;;35.90;44.50;;;;;;4918595;29;20556;-73
2023/09/07 15:45:09;;;;;;;3.10;2.13;;;34.90;45.90;;;;;;4918745;29;20452;-73
2023/09/07 15:47:36;;;;;;;2.20;1.90;;;34.00;47.90;;;;;;4918751;29;20504;-73
2023/09/07 15:50:03;;;;;;;3.43;2.07;;;33.20;49.40;;;;;;4918737;29;20456;-72
2023/09/07 15:52:32;;;;;;;3.07;2.40;;;32.30;50.80;;;;;;4918242;29;20882;-73
2023/09/07 15:54:59;;;;;;;2.03;1.70;;;31.80;51.60;;;;;;4918353;29;20464;-73
2023/09/07 15:57:26;;;;;;;2.50;1.97;;;31.70;51.80;;;;;;4918576;29;20452;-72
2023/09/07 15:59:52;;;;;;;2.20;1.80;;;31.50;52.80;;;;;;4918492;29;20575;-72
2023/09/07 16:02:20;;;;;;;1.87;1.67;;;31.00;52.80;;;;;;4918199;29;20492;-72
2023/09/07 16:04:47;;;;;;;2.00;1.57;;;30.50;53.70;;;;;;4918499;29;20471;-73
2023/09/07 16:07:14;;;;;;;2.43;2.23;;;30.30;54.20;;;;;;4918447;29;20517;-73
2023/09/07 16:09:40;;;;;;;2.20;1.93;;;29.90;55.00;;;;;;4918402;29;20448;-73
2023/09/07 16:12:08;;;;;;;3.20;2.00;;;29.80;55.00;;;;;;4918308;29;20472;-73
2023/09/07 16:14:35;;;;;;;2.70;2.50;;;29.60;55.70;;;;;;4918302;29;20481;-72
2023/09/07 16:17:01;;;;;;;2.00;1.70;;;29.50;56.10;;;;;;4918260;29;20530;-74
2023/09/07 16:19:29;;;;;;;2.47;2.23;;;29.50;56.40;;;;;;4917906;29;20855;-71
2023/09/07 16:21:56;;;;;;;3.00;2.07;;;29.60;56.50;;;;;;4918410;29;20527;-74
2023/09/07 16:24:23;;;;;;;2.73;2.07;;;29.50;56.30;;;;;;4918054;29;20479;-75
2023/09/07 16:26:50;;;;;;;2.97;1.87;;;29.40;56.30;;;;;;4918044;29;20452;-72
2023/09/07 16:29:16;;;;;;;2.63;2.10;;;29.40;56.10;;;;;;4918002;29;20453;-73
2023/09/07 16:31:43;;;;;;;2.50;1.90;;;29.30;56.10;;;;;;4917948;29;20468;-73
2023/09/07 16:34:09;;;;;;;2.10;1.83;;;29.10;56.70;;;;;;4917989;29;20480;-74
2023/09/07 16:36:37;;;;;;;2.30;2.03;;;29.20;56.50;;;;;;4917959;29;20449;-74
2023/09/07 16:39:04;;;;;;;2.50;1.83;;;29.00;56.70;;;;;;4917878;29;20444;-72
2023/09/07 16:41:31;;;;;;;2.73;2.10;;;28.90;56.90;;;;;;4917709;29;20492;-72
2023/09/07 16:43:57;;;;;;;2.23;1.97;;;29.00;56.80;;;;;;4917822;29;20460;-72
2023/09/07 16:46:24;;;;;;;2.67;2.30;;;29.00;56.80;;;;;;4917674;29;20453;-72
2023/09/07 16:48:51;;;;;;;4.33;1.90;;;28.80;57.10;;;;;;4917690;29;20478;-73
2023/09/07 16:51:17;;;;;;;3.07;2.00;;;28.80;57.20;;;;;;4917708;29;20472;-73